PWSweather.com
Personal Weather Stations
Station Observations
SWHWX01
St AppolinardFR 38160

St AppolinardFR 38160

Lat: 45.191, Lon: 5.268

Elevation: 1460

Station Type: Davis Vantage Pro2 Plus

www.sweetwebhome.com/?show=wxindex

High Low Average
Temperature 76.3°F24.6°C 59.0°F15.0°C 65.5°F18.6°C
Dew Point 57.9°F14.4°C 52.1°F11.2°C 56.0°F13.3°C
Winds 8.9 mph 14.3 kmh Calm Calm 2.0 mph SW3.2 kmh SW
Wind Gusts 12.0 mph19.3 kmh -- 4.0 mph6.4 kmh
Humidity 88% 49% 72%
Pressure 30.08 in1018.6 mb 29.89 in1012.2 mb -
Precipitation 0.00 in0.0 mm - -
Hour Temp Dew Point Humidity Winds Wind Gusts Pressure Precip Precip Rate Daily Precip Total
12:00 AM 66.5°F19.2°C 56.8°F13.8°C 71% 4.0 mph SW6.4 kmh SW 6.0 mph9.7 kmh 30.07 in1018.3 mb - 0.00 in0.0 mm 0.00 in0.0 mm
12:30 AM 65.6°F18.7°C 57.1°F13.9°C 74% 5.2 mph WSW8.4 kmh WSW 6.0 mph9.7 kmh 30.07 in1018.3 mb - 0.00 in0.0 mm 0.00 in0.0 mm
01:00 AM 64.5°F18.1°C 57.1°F13.9°C 77% 4.1 mph SW6.6 kmh SW 8.0 mph12.9 kmh 30.08 in1018.6 mb - 0.00 in0.0 mm 0.00 in0.0 mm
01:30 AM 64.2°F17.9°C 57.2°F14.0°C 78% 3.3 mph WSW5.3 kmh WSW 4.0 mph6.4 kmh 30.08 in1018.6 mb - 0.00 in0.0 mm 0.00 in0.0 mm
02:00 AM 64.0°F17.8°C 57.4°F14.1°C 79% 2.5 mph WSW4.0 kmh WSW 6.0 mph9.7 kmh 30.08 in1018.6 mb - 0.00 in0.0 mm 0.00 in0.0 mm
02:30 AM 63.7°F17.6°C 57.4°F14.1°C 80% 2.9 mph WSW4.7 kmh WSW 7.0 mph11.3 kmh 30.07 in1018.3 mb - 0.00 in0.0 mm 0.00 in0.0 mm
03:00 AM 63.1°F17.3°C 56.8°F13.8°C 80% 0.3 mph WSW0.5 kmh WSW 4.0 mph6.4 kmh 30.07 in1018.3 mb - 0.00 in0.0 mm 0.00 in0.0 mm
03:30 AM 62.2°F16.8°C 56.3°F13.5°C 81% 0.8 mph WSW1.3 kmh WSW 2.0 mph3.2 kmh 30.07 in1018.3 mb - 0.00 in0.0 mm 0.00 in0.0 mm
04:00 AM 61.1°F16.2°C 55.2°F12.9°C 81% 1.0 mph WSW1.6 kmh WSW 3.0 mph4.8 kmh 30.07 in1018.3 mb - 0.00 in0.0 mm 0.00 in0.0 mm
04:30 AM 60.5°F15.8°C 54.7°F12.6°C 81% Calm Calm -- 30.06 in1017.9 mb - 0.00 in0.0 mm 0.00 in0.0 mm
05:00 AM 59.9°F15.5°C 54.1°F12.3°C 81% 0.1 mph WSW0.2 kmh WSW 2.0 mph3.2 kmh 30.06 in1017.9 mb - 0.00 in0.0 mm 0.00 in0.0 mm
05:30 AM 59.8°F15.4°C 53.3°F11.8°C 79% 0.6 mph WSW1.0 kmh WSW 1.0 mph1.6 kmh 30.05 in1017.6 mb - 0.00 in0.0 mm 0.00 in0.0 mm
06:00 AM 59.6°F15.3°C 52.7°F11.5°C 78% 0.7 mph WSW1.1 kmh WSW 2.0 mph3.2 kmh 30.04 in1017.3 mb - 0.00 in0.0 mm 0.00 in0.0 mm
06:30 AM 59.0°F15.0°C 52.1°F11.2°C 78% 0.8 mph WSW1.3 kmh WSW 1.0 mph1.6 kmh 30.04 in1017.3 mb - 0.00 in0.0 mm 0.00 in0.0 mm
07:00 AM 59.6°F15.3°C 52.4°F11.3°C 77% 0.5 mph WSW0.8 kmh WSW 1.0 mph1.6 kmh 30.04 in1017.3 mb - 0.00 in0.0 mm 0.00 in0.0 mm
07:30 AM 61.3°F16.3°C 53.7°F12.1°C 76% Calm Calm -- 30.04 in1017.3 mb - 0.00 in0.0 mm 0.00 in0.0 mm
08:00 AM 63.7°F17.6°C 54.5°F12.5°C 72% 1.2 mph WSW1.9 kmh WSW 2.0 mph3.2 kmh 30.04 in1017.3 mb - 0.00 in0.0 mm 0.00 in0.0 mm
08:30 AM 64.3°F17.9°C 54.7°F12.6°C 71% 1.0 mph WSW1.6 kmh WSW 3.0 mph4.8 kmh 30.05 in1017.6 mb - 0.00 in0.0 mm 0.00 in0.0 mm
09:00 AM 64.9°F18.3°C 54.5°F12.5°C 69% 2.3 mph S3.7 kmh S 4.0 mph6.4 kmh 30.04 in1017.3 mb - 0.00 in0.0 mm 0.00 in0.0 mm
09:30 AM 65.9°F18.8°C 55.0°F12.8°C 68% 1.7 mph S2.7 kmh S 2.0 mph3.2 kmh 30.03 in1016.9 mb - 0.00 in0.0 mm 0.00 in0.0 mm
10:00 AM 67.9°F19.9°C 56.5°F13.6°C 67% 2.6 mph S4.2 kmh S 6.0 mph9.7 kmh 30.03 in1016.9 mb - 0.00 in0.0 mm 0.00 in0.0 mm
10:30 AM 68.8°F20.4°C 56.6°F13.7°C 65% 4.5 mph ESE7.2 kmh ESE 7.0 mph11.3 kmh 30.03 in1016.9 mb - 0.00 in0.0 mm 0.00 in0.0 mm
11:00 AM 69.8°F21.0°C 56.1°F13.4°C 62% 2.8 mph SE4.5 kmh SE 4.0 mph6.4 kmh 30.03 in1016.9 mb - 0.00 in0.0 mm 0.00 in0.0 mm
11:30 AM 70.5°F21.4°C 56.9°F13.8°C 62% 0.1 mph SSE0.2 kmh SSE 2.0 mph3.2 kmh 30.02 in1016.6 mb - 0.00 in0.0 mm 0.00 in0.0 mm
12:00 PM 70.2°F21.2°C 56.1°F13.4°C 61% 1.3 mph S2.1 kmh S 3.0 mph4.8 kmh 30.01 in1016.3 mb - 0.00 in0.0 mm 0.00 in0.0 mm
12:30 PM 73.1°F22.8°C 56.5°F13.6°C 56% 2.3 mph SE3.7 kmh SE 7.0 mph11.3 kmh 30.00 in1015.9 mb - 0.00 in0.0 mm 0.00 in0.0 mm
01:00 PM 76.3°F24.6°C 56.9°F13.8°C 51% 3.2 mph SSW5.1 kmh SSW 6.0 mph9.7 kmh 29.98 in1015.2 mb - 0.00 in0.0 mm 0.00 in0.0 mm
01:30 PM 75.9°F24.4°C 55.4°F13.0°C 49% 1.4 mph SW2.3 kmh SW 2.0 mph3.2 kmh 29.96 in1014.6 mb - 0.00 in0.0 mm 0.00 in0.0 mm
02:00 PM 74.4°F23.6°C 55.1°F12.8°C 51% 3.6 mph SW5.8 kmh SW 8.0 mph12.9 kmh 29.96 in1014.6 mb - 0.00 in0.0 mm 0.00 in0.0 mm
02:30 PM 72.5°F22.5°C 54.4°F12.4°C 53% 6.6 mph SW10.6 kmh SW 10.0 mph16.1 kmh 29.95 in1014.2 mb - 0.00 in0.0 mm 0.00 in0.0 mm
03:00 PM 71.7°F22.1°C 54.7°F12.6°C 55% 6.2 mph SW10.0 kmh SW 12.0 mph19.3 kmh 29.95 in1014.2 mb - 0.00 in0.0 mm 0.00 in0.0 mm
03:30 PM 71.5°F21.9°C 54.9°F12.7°C 56% 5.3 mph SW8.5 kmh SW 10.0 mph16.1 kmh 29.94 in1013.9 mb - 0.00 in0.0 mm 0.00 in0.0 mm
04:00 PM 70.7°F21.5°C 55.2°F12.9°C 58% 5.8 mph SW9.3 kmh SW 8.0 mph12.9 kmh 29.93 in1013.5 mb - 0.00 in0.0 mm 0.00 in0.0 mm
04:30 PM 69.6°F20.9°C 56.0°F13.3°C 62% 6.2 mph SW10.0 kmh SW 12.0 mph19.3 kmh 29.93 in1013.5 mb - 0.00 in0.0 mm 0.00 in0.0 mm
05:00 PM 68.0°F20.0°C 56.2°F13.4°C 66% 5.7 mph WSW9.2 kmh WSW 11.0 mph17.7 kmh 29.92 in1013.2 mb - 0.00 in0.0 mm 0.00 in0.0 mm
05:30 PM 66.7°F19.3°C 56.6°F13.7°C 70% 8.9 mph SW14.3 kmh SW 12.0 mph19.3 kmh 29.92 in1013.2 mb - 0.00 in0.0 mm 0.00 in0.0 mm
06:00 PM 65.1°F18.4°C 57.3°F14.1°C 76% 0.8 mph WSW1.3 kmh WSW 7.0 mph11.3 kmh 29.93 in1013.5 mb - 0.00 in0.0 mm 0.00 in0.0 mm
06:30 PM 64.5°F18.1°C 57.8°F14.3°C 79% 0.7 mph WSW1.1 kmh WSW 2.0 mph3.2 kmh 29.92 in1013.2 mb - 0.00 in0.0 mm 0.00 in0.0 mm
07:00 PM 63.8°F17.7°C 57.9°F14.4°C 81% 4.1 mph SW6.6 kmh SW 7.0 mph11.3 kmh 29.92 in1013.2 mb - 0.00 in0.0 mm 0.00 in0.0 mm
07:30 PM 63.4°F17.4°C 57.5°F14.2°C 81% 1.9 mph WSW3.1 kmh WSW 2.0 mph3.2 kmh 29.92 in1013.2 mb - 0.00 in0.0 mm 0.00 in0.0 mm
08:00 PM 63.1°F17.3°C 57.5°F14.2°C 82% 1.6 mph WSW2.6 kmh WSW 3.0 mph4.8 kmh 29.92 in1013.2 mb - 0.00 in0.0 mm 0.00 in0.0 mm
08:30 PM 62.9°F17.2°C 57.7°F14.3°C 83% 0.7 mph WSW1.1 kmh WSW 2.0 mph3.2 kmh 29.90 in1012.5 mb - 0.00 in0.0 mm 0.00 in0.0 mm
09:00 PM 62.6°F17.0°C 57.4°F14.1°C 83% Calm Calm -- 29.90 in1012.5 mb - 0.00 in0.0 mm 0.00 in0.0 mm
09:30 PM 62.2°F16.8°C 57.3°F14.1°C 84% 1.3 mph WSW2.1 kmh WSW 2.0 mph3.2 kmh 29.90 in1012.5 mb - 0.00 in0.0 mm 0.00 in0.0 mm
10:00 PM 61.5°F16.4°C 56.9°F13.8°C 85% Calm Calm 1.0 mph1.6 kmh 29.90 in1012.5 mb - 0.00 in0.0 mm 0.00 in0.0 mm
10:30 PM 61.4°F16.3°C 57.5°F14.2°C 87% Calm Calm -- 29.90 in1012.5 mb - 0.00 in0.0 mm 0.00 in0.0 mm
11:00 PM 60.5°F15.8°C 56.9°F13.8°C 88% Calm Calm -- 29.89 in1012.2 mb - 0.00 in0.0 mm 0.00 in0.0 mm
11:30 PM 60.7°F15.9°C 57.1°F13.9°C 88% Calm Calm -- 29.89 in1012.2 mb - 0.00 in0.0 mm 0.00 in0.0 mm